OAL063 RJBD-RJAF
Flight info
| Callsign | OAL063 |
|---|---|
| Flight time | N/A |
| Altitude | 13000 |
| Route | NATCH AKENO KOWA NAGOYA TOLUM MATSUMOTO |
| Aircraft | C208/L-SDFGR/C |
Departure
| Time | 2026-04-30 15:09 |
|---|---|
| Airport | Nanki Shirahama Airport (RJBD) |
Arrival
| Time | N/A |
|---|---|
| Airport | Shinshu-Matsumoto Airport (RJAF) |
| Time | Latitude | Longitude | Altitude | Speed | Heading |
|---|---|---|---|---|---|
| 2026-04-30 14:58 | 33.66544 | 135.35961 | 312 ft | 0 kts | 316° |
| 2026-04-30 15:06 | 33.66550 | 135.36014 | 309 ft | 10 kts | 56° |
| 2026-04-30 15:06 | 33.66663 | 135.36032 | 305 ft | 17 kts | 324° |
| 2026-04-30 15:07 | 33.66862 | 135.35795 | 305 ft | 13 kts | 296° |
| 2026-04-30 15:07 | 33.66904 | 135.35798 | 303 ft | 0 kts | 141° |
| 2026-04-30 15:08 | 33.66869 | 135.35832 | 305 ft | 26 kts | 139° |
| 2026-04-30 15:08 | 33.65698 | 135.36785 | 750 ft | 81 kts | 140° |
| 2026-04-30 15:09 | 33.65341 | 135.37657 | 1350 ft | 93 kts | 44° |
| 2026-04-30 15:09 | 33.66790 | 135.38083 | 1957 ft | 115 kts | 28° |
| 2026-04-30 15:10 | 33.67899 | 135.39170 | 2458 ft | 103 kts | 64° |
| 2026-04-30 15:11 | 33.69654 | 135.41738 | 3408 ft | 104 kts | 69° |
| 2026-04-30 15:11 | 33.70550 | 135.43111 | 3880 ft | 106 kts | 70° |
| 2026-04-30 15:12 | 33.71926 | 135.45244 | 4602 ft | 107 kts | 70° |
| 2026-04-30 15:13 | 33.72859 | 135.46695 | 5072 ft | 110 kts | 69° |
| 2026-04-30 15:14 | 33.74759 | 135.49654 | 6042 ft | 119 kts | 65° |
| 2026-04-30 15:14 | 33.76214 | 135.51892 | 6658 ft | 103 kts | 65° |
| 2026-04-30 15:16 | 33.78705 | 135.55778 | 7289 ft | 140 kts | 64° |
| 2026-04-30 15:17 | 33.81420 | 135.60030 | 7921 ft | 172 kts | 61° |
| 2026-04-30 15:18 | 33.85188 | 135.65906 | 8562 ft | 171 kts | 61° |
| 2026-04-30 15:19 | 33.87513 | 135.69496 | 8998 ft | 191 kts | 60° |